sensor_id;sensor_type;location;lat;lon;timestamp;P1;durP1;ratioP1;P2;durP2;ratioP2
3979;SDS011;2004;52.452;13.120;2022-08-03T00:04:02;6.40;;;4.70;;
3979;SDS011;2004;52.452;13.120;2022-08-03T00:11:53;17.43;;;3.93;;
3979;SDS011;2004;52.452;13.120;2022-08-03T00:19:44;5.57;;;4.27;;
3979;SDS011;2004;52.452;13.120;2022-08-03T00:27:35;11.87;;;4.20;;
3979;SDS011;2004;52.452;13.120;2022-08-03T00:35:26;6.20;;;3.73;;
3979;SDS011;2004;52.452;13.120;2022-08-03T00:43:17;5.43;;;4.47;;
3979;SDS011;2004;52.452;13.120;2022-08-03T00:51:08;6.80;;;4.23;;
3979;SDS011;2004;52.452;13.120;2022-08-03T00:58:59;7.20;;;4.40;;
3979;SDS011;2004;52.452;13.120;2022-08-03T01:07:05;4.07;;;3.60;;
3979;SDS011;2004;52.452;13.120;2022-08-03T01:31:17;7.90;;;4.20;;
3979;SDS011;2004;52.452;13.120;2022-08-03T01:39:12;4.53;;;3.63;;
3979;SDS011;2004;52.452;13.120;2022-08-03T01:47:05;5.30;;;3.80;;
3979;SDS011;2004;52.452;13.120;2022-08-03T01:54:56;5.80;;;4.00;;
3979;SDS011;2004;52.452;13.120;2022-08-03T02:02:48;3.87;;;3.57;;
3979;SDS011;2004;52.452;13.120;2022-08-03T02:10:41;4.87;;;3.90;;
3979;SDS011;2004;52.452;13.120;2022-08-03T02:18:35;5.77;;;3.87;;
3979;SDS011;2004;52.452;13.120;2022-08-03T02:26:29;5.90;;;3.53;;
3979;SDS011;2004;52.452;13.120;2022-08-03T02:34:20;4.07;;;3.77;;
3979;SDS011;2004;52.452;13.120;2022-08-03T02:42:14;6.13;;;3.07;;
3979;SDS011;2004;52.452;13.120;2022-08-03T02:50:11;4.63;;;3.60;;
3979;SDS011;2004;52.452;13.120;2022-08-03T02:58:03;6.47;;;3.40;;
3979;SDS011;2004;52.452;13.120;2022-08-03T03:05:55;4.90;;;2.83;;
3979;SDS011;2004;52.452;13.120;2022-08-03T03:13:46;3.30;;;2.97;;
3979;SDS011;2004;52.452;13.120;2022-08-03T03:21:38;5.00;;;3.10;;
3979;SDS011;2004;52.452;13.120;2022-08-03T03:29:29;4.70;;;3.10;;
3979;SDS011;2004;52.452;13.120;2022-08-03T03:37:22;7.80;;;3.90;;
3979;SDS011;2004;52.452;13.120;2022-08-03T03:45:12;4.97;;;3.37;;
3979;SDS011;2004;52.452;13.120;2022-08-03T03:53:04;5.80;;;3.07;;
3979;SDS011;2004;52.452;13.120;2022-08-03T04:00:57;5.47;;;3.53;;
3979;SDS011;2004;52.452;13.120;2022-08-03T04:08:48;3.83;;;3.03;;
3979;SDS011;2004;52.452;13.120;2022-08-03T04:16:58;3.30;;;3.00;;
3979;SDS011;2004;52.452;13.120;2022-08-03T04:24:58;4.07;;;2.70;;
3979;SDS011;2004;52.452;13.120;2022-08-03T04:32:56;6.50;;;3.40;;
3979;SDS011;2004;52.452;13.120;2022-08-03T04:40:47;10.40;;;3.80;;
3979;SDS011;2004;52.452;13.120;2022-08-03T04:48:38;3.43;;;3.13;;
3979;SDS011;2004;52.452;13.120;2022-08-03T04:56:29;5.10;;;3.50;;
3979;SDS011;2004;52.452;13.120;2022-08-03T05:04:19;4.30;;;3.77;;
3979;SDS011;2004;52.452;13.120;2022-08-03T05:12:11;7.13;;;2.77;;
3979;SDS011;2004;52.452;13.120;2022-08-03T05:20:02;4.07;;;3.00;;
3979;SDS011;2004;52.452;13.120;2022-08-03T05:27:54;7.13;;;3.33;;
3979;SDS011;2004;52.452;13.120;2022-08-03T05:35:45;5.73;;;3.60;;
3979;SDS011;2004;52.452;13.120;2022-08-03T05:43:35;3.40;;;2.93;;
3979;SDS011;2004;52.452;13.120;2022-08-03T05:51:26;3.47;;;2.73;;
3979;SDS011;2004;52.452;13.120;2022-08-03T05:59:17;4.43;;;2.20;;
3979;SDS011;2004;52.452;13.120;2022-08-03T06:07:08;6.10;;;1.83;;
3979;SDS011;2004;52.452;13.120;2022-08-03T06:14:59;6.60;;;2.03;;
3979;SDS011;2004;52.452;13.120;2022-08-03T06:22:49;4.50;;;1.87;;
3979;SDS011;2004;52.452;13.120;2022-08-03T06:30:40;4.20;;;2.33;;
3979;SDS011;2004;52.452;13.120;2022-08-03T06:38:30;5.50;;;2.13;;
3979;SDS011;2004;52.452;13.120;2022-08-03T06:46:21;5.17;;;2.13;;
3979;SDS011;2004;52.452;13.120;2022-08-03T06:54:12;5.93;;;2.10;;
3979;SDS011;2004;52.452;13.120;2022-08-03T07:02:02;2.60;;;1.90;;
3979;SDS011;2004;52.452;13.120;2022-08-03T07:09:53;4.83;;;2.10;;
3979;SDS011;2004;52.452;13.120;2022-08-03T07:17:44;9.53;;;2.33;;
3979;SDS011;2004;52.452;13.120;2022-08-03T07:25:35;7.23;;;2.00;;
3979;SDS011;2004;52.452;13.120;2022-08-03T07:33:25;4.63;;;2.20;;
3979;SDS011;2004;52.452;13.120;2022-08-03T07:41:16;3.37;;;2.20;;
3979;SDS011;2004;52.452;13.120;2022-08-03T07:49:06;5.70;;;2.00;;
3979;SDS011;2004;52.452;13.120;2022-08-03T07:56:57;2.40;;;1.43;;
3979;SDS011;2004;52.452;13.120;2022-08-03T08:04:48;5.50;;;1.90;;
3979;SDS011;2004;52.452;13.120;2022-08-03T08:12:39;5.30;;;1.77;;
3979;SDS011;2004;52.452;13.120;2022-08-03T08:20:30;3.50;;;1.70;;
3979;SDS011;2004;52.452;13.120;2022-08-03T08:28:22;9.67;;;2.13;;
3979;SDS011;2004;52.452;13.120;2022-08-03T08:36:13;2.33;;;2.13;;
3979;SDS011;2004;52.452;13.120;2022-08-03T08:44:04;7.43;;;2.17;;
3979;SDS011;2004;52.452;13.120;2022-08-03T08:51:57;5.23;;;1.80;;
3979;SDS011;2004;52.452;13.120;2022-08-03T08:59:50;10.40;;;2.07;;
3979;SDS011;2004;52.452;13.120;2022-08-03T09:07:42;2.23;;;2.03;;
3979;SDS011;2004;52.452;13.120;2022-08-03T09:15:34;2.93;;;2.33;;
3979;SDS011;2004;52.452;13.120;2022-08-03T09:23:27;3.90;;;2.00;;
3979;SDS011;2004;52.452;13.120;2022-08-03T09:31:35;2.60;;;1.90;;
3979;SDS011;2004;52.452;13.120;2022-08-03T09:39:30;3.40;;;1.90;;
3979;SDS011;2004;52.452;13.120;2022-08-03T09:47:29;3.63;;;1.70;;
3979;SDS011;2004;52.452;13.120;2022-08-03T09:55:25;2.73;;;1.97;;
3979;SDS011;2004;52.452;13.120;2022-08-03T10:03:16;4.23;;;1.50;;
3979;SDS011;2004;52.452;13.120;2022-08-03T10:11:07;1.60;;;1.50;;
3979;SDS011;2004;52.452;13.120;2022-08-03T10:18:57;2.13;;;1.93;;
3979;SDS011;2004;52.452;13.120;2022-08-03T10:26:48;3.83;;;1.87;;
3979;SDS011;2004;52.452;13.120;2022-08-03T10:34:41;3.10;;;1.53;;
3979;SDS011;2004;52.452;13.120;2022-08-03T10:42:33;2.23;;;2.00;;
3979;SDS011;2004;52.452;13.120;2022-08-03T10:50:25;2.97;;;1.57;;
3979;SDS011;2004;52.452;13.120;2022-08-03T11:06:26;2.53;;;1.57;;
3979;SDS011;2004;52.452;13.120;2022-08-03T11:14:18;1.57;;;1.47;;
3979;SDS011;2004;52.452;13.120;2022-08-03T11:22:10;2.00;;;1.90;;
3979;SDS011;2004;52.452;13.120;2022-08-03T11:46:10;2.40;;;1.70;;
3979;SDS011;2004;52.452;13.120;2022-08-03T11:54:06;1.30;;;1.20;;
3979;SDS011;2004;52.452;13.120;2022-08-03T12:17:56;1.40;;;1.30;;
3979;SDS011;2004;52.452;13.120;2022-08-03T12:25:47;8.03;;;1.90;;
3979;SDS011;2004;52.452;13.120;2022-08-03T12:41:51;2.83;;;1.77;;
3979;SDS011;2004;52.452;13.120;2022-08-03T12:49:46;6.40;;;2.00;;
3979;SDS011;2004;52.452;13.120;2022-08-03T12:57:42;6.40;;;1.70;;
3979;SDS011;2004;52.452;13.120;2022-08-03T13:05:42;2.37;;;1.80;;
3979;SDS011;2004;52.452;13.120;2022-08-03T13:13:37;4.10;;;1.83;;
3979;SDS011;2004;52.452;13.120;2022-08-03T13:21:28;1.90;;;1.80;;
3979;SDS011;2004;52.452;13.120;2022-08-03T13:29:19;4.13;;;2.00;;
3979;SDS011;2004;52.452;13.120;2022-08-03T13:37:09;5.87;;;1.60;;
3979;SDS011;2004;52.452;13.120;2022-08-03T13:45:01;1.80;;;1.70;;
3979;SDS011;2004;52.452;13.120;2022-08-03T13:52:53;2.60;;;1.80;;
3979;SDS011;2004;52.452;13.120;2022-08-03T14:00:44;4.97;;;1.50;;
3979;SDS011;2004;52.452;13.120;2022-08-03T14:08:34;1.40;;;1.40;;
3979;SDS011;2004;52.452;13.120;2022-08-03T14:16:25;1.77;;;1.67;;
3979;SDS011;2004;52.452;13.120;2022-08-03T14:24:15;12.33;;;2.10;;
3979;SDS011;2004;52.452;13.120;2022-08-03T14:32:06;1.50;;;1.40;;
3979;SDS011;2004;52.452;13.120;2022-08-03T14:39:57;1.83;;;1.37;;
3979;SDS011;2004;52.452;13.120;2022-08-03T14:47:47;1.90;;;1.70;;
3979;SDS011;2004;52.452;13.120;2022-08-03T14:55:38;2.03;;;1.70;;
3979;SDS011;2004;52.452;13.120;2022-08-03T15:03:28;1.57;;;1.47;;
3979;SDS011;2004;52.452;13.120;2022-08-03T15:11:19;1.70;;;1.60;;
3979;SDS011;2004;52.452;13.120;2022-08-03T15:19:09;3.20;;;1.73;;
3979;SDS011;2004;52.452;13.120;2022-08-03T15:27:00;2.20;;;1.70;;
3979;SDS011;2004;52.452;13.120;2022-08-03T15:34:51;2.50;;;1.90;;
3979;SDS011;2004;52.452;13.120;2022-08-03T15:42:41;3.13;;;1.70;;
3979;SDS011;2004;52.452;13.120;2022-08-03T15:50:32;2.07;;;1.73;;
3979;SDS011;2004;52.452;13.120;2022-08-03T15:58:22;2.57;;;1.63;;
3979;SDS011;2004;52.452;13.120;2022-08-03T16:06:13;1.87;;;1.70;;
3979;SDS011;2004;52.452;13.120;2022-08-03T16:14:03;6.57;;;1.80;;
3979;SDS011;2004;52.452;13.120;2022-08-03T16:21:54;2.10;;;1.87;;
3979;SDS011;2004;52.452;13.120;2022-08-03T16:29:44;2.50;;;2.10;;
3979;SDS011;2004;52.452;13.120;2022-08-03T16:37:35;4.10;;;1.80;;
3979;SDS011;2004;52.452;13.120;2022-08-03T16:45:26;1.57;;;1.47;;
3979;SDS011;2004;52.452;13.120;2022-08-03T16:53:16;1.57;;;1.53;;
3979;SDS011;2004;52.452;13.120;2022-08-03T17:01:08;3.07;;;1.60;;
3979;SDS011;2004;52.452;13.120;2022-08-03T17:08:59;1.40;;;1.40;;
3979;SDS011;2004;52.452;13.120;2022-08-03T17:16:51;1.40;;;1.40;;
3979;SDS011;2004;52.452;13.120;2022-08-03T17:24:44;4.50;;;2.20;;
3979;SDS011;2004;52.452;13.120;2022-08-03T17:32:39;3.40;;;2.13;;
3979;SDS011;2004;52.452;13.120;2022-08-03T17:40:32;2.90;;;1.70;;
3979;SDS011;2004;52.452;13.120;2022-08-03T17:48:22;5.13;;;2.20;;
3979;SDS011;2004;52.452;13.120;2022-08-03T17:56:24;1.70;;;1.57;;
3979;SDS011;2004;52.452;13.120;2022-08-03T18:04:23;1.70;;;1.60;;
3979;SDS011;2004;52.452;13.120;2022-08-03T18:12:21;2.70;;;1.60;;
3979;SDS011;2004;52.452;13.120;2022-08-03T18:20:21;3.53;;;2.30;;
3979;SDS011;2004;52.452;13.120;2022-08-03T18:28:12;2.20;;;2.00;;
3979;SDS011;2004;52.452;13.120;2022-08-03T18:36:08;8.83;;;2.13;;
3979;SDS011;2004;52.452;13.120;2022-08-03T18:44:01;1.40;;;1.40;;
3979;SDS011;2004;52.452;13.120;2022-08-03T18:51:57;3.03;;;2.10;;
3979;SDS011;2004;52.452;13.120;2022-08-03T18:59:57;2.10;;;1.87;;
3979;SDS011;2004;52.452;13.120;2022-08-03T19:07:58;3.20;;;2.30;;
3979;SDS011;2004;52.452;13.120;2022-08-03T19:15:53;5.57;;;2.67;;
3979;SDS011;2004;52.452;13.120;2022-08-03T19:23:46;4.10;;;3.70;;
3979;SDS011;2004;52.452;13.120;2022-08-03T19:31:38;4.93;;;3.23;;
3979;SDS011;2004;52.452;13.120;2022-08-03T19:39:29;18.03;;;3.50;;
3979;SDS011;2004;52.452;13.120;2022-08-03T19:47:21;5.17;;;2.83;;
3979;SDS011;2004;52.452;13.120;2022-08-03T19:55:20;6.33;;;2.70;;
3979;SDS011;2004;52.452;13.120;2022-08-03T20:03:11;4.10;;;2.77;;
3979;SDS011;2004;52.452;13.120;2022-08-03T20:11:02;4.30;;;3.20;;
3979;SDS011;2004;52.452;13.120;2022-08-03T20:18:52;5.37;;;3.27;;
3979;SDS011;2004;52.452;13.120;2022-08-03T20:26:43;5.60;;;3.03;;
3979;SDS011;2004;52.452;13.120;2022-08-03T20:34:40;5.20;;;3.50;;
3979;SDS011;2004;52.452;13.120;2022-08-03T20:42:31;6.77;;;3.80;;
3979;SDS011;2004;52.452;13.120;2022-08-03T20:50:22;5.00;;;3.93;;
3979;SDS011;2004;52.452;13.120;2022-08-03T20:58:13;3.80;;;3.50;;
3979;SDS011;2004;52.452;13.120;2022-08-03T21:06:03;12.63;;;4.30;;
3979;SDS011;2004;52.452;13.120;2022-08-03T21:14:00;6.30;;;3.90;;
3979;SDS011;2004;52.452;13.120;2022-08-03T21:21:53;9.40;;;4.40;;
3979;SDS011;2004;52.452;13.120;2022-08-03T21:29:44;6.33;;;3.60;;
3979;SDS011;2004;52.452;13.120;2022-08-03T21:37:36;7.87;;;4.30;;
3979;SDS011;2004;52.452;13.120;2022-08-03T21:45:28;6.90;;;4.10;;
3979;SDS011;2004;52.452;13.120;2022-08-03T21:53:18;5.60;;;4.50;;
3979;SDS011;2004;52.452;13.120;2022-08-03T22:01:09;9.07;;;4.60;;
3979;SDS011;2004;52.452;13.120;2022-08-03T22:09:04;6.67;;;4.63;;
3979;SDS011;2004;52.452;13.120;2022-08-03T22:16:55;5.53;;;5.07;;
3979;SDS011;2004;52.452;13.120;2022-08-03T22:24:45;5.53;;;4.93;;
3979;SDS011;2004;52.452;13.120;2022-08-03T22:32:38;10.70;;;4.83;;
3979;SDS011;2004;52.452;13.120;2022-08-03T22:40:30;6.30;;;4.93;;
3979;SDS011;2004;52.452;13.120;2022-08-03T22:48:21;6.50;;;4.83;;
3979;SDS011;2004;52.452;13.120;2022-08-03T22:56:12;6.10;;;4.70;;
3979;SDS011;2004;52.452;13.120;2022-08-03T23:04:03;7.90;;;4.77;;
3979;SDS011;2004;52.452;13.120;2022-08-03T23:11:55;5.13;;;4.63;;
3979;SDS011;2004;52.452;13.120;2022-08-03T23:19:50;6.50;;;5.00;;
3979;SDS011;2004;52.452;13.120;2022-08-03T23:27:42;6.67;;;5.10;;
3979;SDS011;2004;52.452;13.120;2022-08-03T23:35:34;8.37;;;4.73;;
3979;SDS011;2004;52.452;13.120;2022-08-03T23:43:44;14.30;;;5.70;;
3979;SDS011;2004;52.452;13.120;2022-08-03T23:51:53;13.63;;;5.53;;
